createdAt,value
2019-05-26T00:01:32.685Z,100432.34
2019-05-26T00:04:05.379Z,100431.03
2019-05-26T00:06:37.726Z,100430.70
2019-05-26T00:09:09.379Z,100424.77
2019-05-26T00:11:40.881Z,100429.24
2019-05-26T00:14:12.356Z,100431.94
2019-05-26T00:16:43.691Z,100425.32
2019-05-26T00:19:16.220Z,100427.68
2019-05-26T00:21:47.556Z,100416.16
2019-05-26T00:24:18.842Z,100424.14
2019-05-26T00:26:50.204Z,100414.48
2019-05-26T00:29:21.661Z,100413.50
2019-05-26T00:31:53.262Z,100415.28
2019-05-26T00:34:24.765Z,100407.78
2019-05-26T00:36:56.134Z,100413.95
2019-05-26T00:39:27.807Z,100406.11
2019-05-26T00:41:59.306Z,100408.83
2019-05-26T00:44:30.741Z,100407.93
2019-05-26T00:47:02.309Z,100407.17
2019-05-26T00:49:33.754Z,100404.55
2019-05-26T00:52:05.222Z,100406.14
2019-05-26T00:54:36.674Z,100404.30
2019-05-26T00:57:08.275Z,100404.44
2019-05-26T00:59:39.720Z,100405.93
2019-05-26T01:02:11.106Z,100406.02
2019-05-26T01:04:42.622Z,100401.80
2019-05-26T01:07:14.098Z,100405.88
2019-05-26T01:09:45.444Z,100406.62
2019-05-26T01:12:16.941Z,100404.31
2019-05-26T01:14:48.238Z,100398.23
2019-05-26T01:17:19.801Z,100400.52
2019-05-26T01:19:51.220Z,100395.63
2019-05-26T01:22:23.351Z,100403.62
2019-05-26T01:24:54.809Z,100403.16
2019-05-26T01:27:26.229Z,100395.17
2019-05-26T01:29:57.536Z,100400.09
2019-05-26T01:32:29.008Z,100404.12
2019-05-26T01:35:00.477Z,100408.52
2019-05-26T01:37:32.200Z,100411.59
2019-05-26T01:40:04.654Z,100418.28
2019-05-26T01:42:36.158Z,100413.87
2019-05-26T01:45:11.497Z,100416.52
2019-05-26T01:47:42.850Z,100417.41
2019-05-26T01:50:14.259Z,100424.91
2019-05-26T01:52:45.617Z,100422.27
2019-05-26T01:55:17.072Z,100423.59
2019-05-26T01:57:48.594Z,100419.61
2019-05-26T02:00:20.448Z,100419.19
2019-05-26T02:02:51.829Z,100421.37
2019-05-26T02:05:23.386Z,100422.25
2019-05-26T02:07:54.917Z,100422.25
2019-05-26T02:10:26.437Z,100417.85
2019-05-26T02:12:58.045Z,100418.73
2019-05-26T02:15:31.339Z,100424.91
2019-05-26T02:18:02.928Z,100427.13
2019-05-26T02:20:34.468Z,100427.13
2019-05-26T02:23:05.980Z,100427.13
2019-05-26T02:25:37.361Z,100425.78
2019-05-26T02:28:08.797Z,100431.95
2019-05-26T02:30:40.273Z,100432.87
2019-05-26T02:33:11.654Z,100431.98
2019-05-26T02:35:43.037Z,100437.73
2019-05-26T02:38:14.394Z,100434.97
2019-05-26T02:40:45.781Z,100439.13
2019-05-26T02:43:17.118Z,100432.77
2019-05-26T02:45:48.500Z,100439.44
2019-05-26T02:48:20.142Z,100439.02
2019-05-26T02:50:51.488Z,100437.69
2019-05-26T02:53:24.841Z,100434.52
2019-05-26T02:55:56.693Z,100434.09
2019-05-26T02:58:27.971Z,100438.95
2019-05-26T03:00:59.719Z,100445.48
2019-05-26T03:03:31.481Z,100441.01
2019-05-26T03:06:04.367Z,100437.28
2019-05-26T03:08:38.451Z,100439.55
2019-05-26T03:11:11.281Z,100433.96
2019-05-26T03:13:45.677Z,100437.99
2019-05-26T03:16:18.983Z,100434.47
2019-05-26T03:18:52.779Z,100433.61
2019-05-26T03:21:25.828Z,100430.05
2019-05-26T03:23:57.462Z,100433.16
2019-05-26T03:26:30.617Z,100440.81
2019-05-26T03:29:02.004Z,100440.31
2019-05-26T03:31:33.329Z,100441.23
2019-05-26T03:34:04.824Z,100436.86
2019-05-26T03:36:36.316Z,100438.23
2019-05-26T03:39:08.584Z,100449.27
2019-05-26T03:41:39.996Z,100445.70
2019-05-26T03:44:11.428Z,100444.67
2019-05-26T03:46:42.925Z,100442.53
2019-05-26T03:49:14.261Z,100439.00
2019-05-26T03:51:45.792Z,100432.02
2019-05-26T03:54:17.098Z,100438.84
2019-05-26T03:56:48.566Z,100442.09
2019-05-26T03:59:21.081Z,100444.70
2019-05-26T04:01:57.341Z,100446.61
2019-05-26T04:04:25.598Z,100449.55
2019-05-26T04:06:58.020Z,100453.41
2019-05-26T04:09:29.345Z,100449.03
2019-05-26T04:12:00.721Z,100450.83
2019-05-26T04:14:32.108Z,100452.41
2019-05-26T04:17:03.587Z,100455.67
2019-05-26T04:19:34.883Z,100457.37
2019-05-26T04:22:06.339Z,100458.81
2019-05-26T04:24:41.184Z,100457.16
2019-05-26T04:27:12.883Z,100453.09
2019-05-26T04:29:44.261Z,100455.92
2019-05-26T04:32:15.581Z,100455.55
2019-05-26T04:34:47.061Z,100458.69
2019-05-26T04:37:18.423Z,100459.73
2019-05-26T04:39:49.744Z,100460.25
2019-05-26T04:42:21.165Z,100460.39
2019-05-26T04:44:53.519Z,100462.02
2019-05-26T04:47:24.808Z,100459.25
2019-05-26T04:49:56.096Z,100458.98
2019-05-26T04:52:27.558Z,100465.39
2019-05-26T04:54:59.052Z,100462.52
2019-05-26T04:57:31.168Z,100462.48
2019-05-26T05:00:02.648Z,100468.56
2019-05-26T05:02:34.404Z,100458.54
2019-05-26T05:05:11.319Z,100464.73
2019-05-26T05:07:42.710Z,100471.10
2019-05-26T05:10:14.423Z,100467.22
2019-05-26T05:13:00.957Z,100464.55
2019-05-26T05:15:33.047Z,100466.77
2019-05-26T05:18:05.844Z,100469.49
2019-05-26T05:20:37.403Z,100473.96
2019-05-26T05:23:10.137Z,100476.20
2019-05-26T05:25:42.490Z,100472.69
2019-05-26T05:28:21.580Z,100478.44
2019-05-26T05:30:52.954Z,100483.80
2019-05-26T05:33:24.415Z,100478.02
2019-05-26T05:35:55.915Z,100482.87
2019-05-26T05:38:27.439Z,100481.98
2019-05-26T05:41:00.368Z,100479.75
2019-05-26T05:43:31.932Z,100483.26
2019-05-26T05:46:03.534Z,100484.13
2019-05-26T05:48:34.927Z,100482.74
2019-05-26T05:51:06.355Z,100483.63
2019-05-26T05:53:37.780Z,100480.88
2019-05-26T05:56:09.280Z,100481.70
2019-05-26T05:58:40.705Z,100474.56
2019-05-26T06:01:12.177Z,100477.53
2019-05-26T06:03:43.675Z,100481.58
2019-05-26T06:06:15.053Z,100478.89
2019-05-26T06:08:46.799Z,100478.48
2019-05-26T06:11:18.561Z,100474.88
2019-05-26T06:13:50.035Z,100479.19
2019-05-26T06:16:34.702Z,100485.15
2019-05-26T06:19:06.182Z,100485.11
2019-05-26T06:21:37.435Z,100480.45
2019-05-26T06:24:08.873Z,100483.80
2019-05-26T06:26:40.355Z,100485.61
2019-05-26T06:29:11.641Z,100486.02
2019-05-26T06:31:43.248Z,100481.55
2019-05-26T06:34:14.638Z,100483.19
2019-05-26T06:36:45.949Z,100484.63
2019-05-26T06:39:17.232Z,100480.74
2019-05-26T06:41:48.518Z,100481.95
2019-05-26T06:44:19.883Z,100478.11
2019-05-26T06:46:51.604Z,100479.77
2019-05-26T06:49:23.090Z,100480.96
2019-05-26T06:51:54.416Z,100479.53
2019-05-26T06:54:25.690Z,100482.94
2019-05-26T06:56:57.030Z,100482.31
2019-05-26T06:59:28.318Z,100485.53
2019-05-26T07:01:59.838Z,100486.36
2019-05-26T07:04:31.131Z,100482.86
2019-05-26T07:07:16.715Z,100483.12
2019-05-26T07:09:49.228Z,100484.88
2019-05-26T07:12:20.583Z,100483.27
2019-05-26T07:14:52.072Z,100480.84
2019-05-26T07:17:23.398Z,100480.91
2019-05-26T07:19:54.885Z,100479.28
2019-05-26T07:22:26.169Z,100484.50
2019-05-26T07:24:57.586Z,100478.26
2019-05-26T07:27:30.225Z,100475.11
2019-05-26T07:30:01.629Z,100481.56
2019-05-26T07:32:33.157Z,100472.94
2019-05-26T07:35:06.278Z,100477.97
2019-05-26T07:37:37.923Z,100469.94
2019-05-26T07:40:10.179Z,100469.21
2019-05-26T07:42:42.211Z,100471.86
2019-05-26T07:45:15.523Z,100474.04
2019-05-26T07:47:46.901Z,100470.72
2019-05-26T07:50:18.470Z,100466.78
2019-05-26T07:52:50.051Z,100469.88
2019-05-26T07:55:21.554Z,100465.78
2019-05-26T07:57:53.106Z,100471.59
2019-05-26T08:00:25.276Z,100462.09
2019-05-26T08:02:56.694Z,100466.61
2019-05-26T08:05:29.636Z,100468.84
2019-05-26T08:08:12.040Z,100467.37
2019-05-26T08:10:34.348Z,100463.31
2019-05-26T08:13:08.269Z,100461.38
2019-05-26T08:15:41.389Z,100462.84
2019-05-26T08:18:12.764Z,100462.95
2019-05-26T08:20:44.131Z,100465.40
2019-05-26T08:23:15.624Z,100465.30
2019-05-26T08:25:47.105Z,100460.70
2019-05-26T08:28:18.580Z,100456.80
2019-05-26T08:30:49.964Z,100458.45
2019-05-26T08:33:21.348Z,100454.49
2019-05-26T08:35:52.911Z,100448.77
2019-05-26T08:38:24.261Z,100448.85
2019-05-26T08:40:56.503Z,100449.13
2019-05-26T08:43:28.443Z,100442.62
2019-05-26T08:45:59.773Z,100442.31
2019-05-26T08:48:32.137Z,100443.55
2019-05-26T08:51:03.512Z,100439.41
2019-05-26T08:53:35.004Z,100440.63
2019-05-26T08:56:06.500Z,100439.83
2019-05-26T08:58:38.909Z,100441.13
2019-05-26T09:01:10.373Z,100450.55
2019-05-26T09:03:42.995Z,100446.25
2019-05-26T09:06:14.400Z,100445.89
2019-05-26T09:08:49.438Z,100434.38
2019-05-26T09:11:21.165Z,100428.72
2019-05-26T09:13:52.596Z,100424.38
2019-05-26T09:16:23.861Z,100425.97
2019-05-26T09:18:55.146Z,100426.07
2019-05-26T09:21:26.437Z,100422.05
2019-05-26T09:23:58.800Z,100421.12
2019-05-26T09:26:30.144Z,100425.52
2019-05-26T09:29:01.556Z,100426.80
2019-05-26T09:31:34.210Z,100425.49
2019-05-26T09:34:06.012Z,100429.84
2019-05-26T09:36:37.397Z,100424.86
2019-05-26T09:39:10.024Z,100418.33
2019-05-26T09:41:44.253Z,100418.97
2019-05-26T09:44:16.027Z,100408.80
2019-05-26T09:46:47.513Z,100411.50
2019-05-26T09:49:18.987Z,100410.36
2019-05-26T09:51:50.648Z,100405.31
2019-05-26T09:54:25.677Z,100404.71
2019-05-26T09:56:57.032Z,100416.27
2019-05-26T09:59:28.374Z,100414.33
2019-05-26T10:01:59.736Z,100408.30
2019-05-26T10:04:31.020Z,100407.05
2019-05-26T10:07:02.380Z,100406.52
2019-05-26T10:09:35.233Z,100406.09
2019-05-26T10:12:07.278Z,100405.76
2019-05-26T10:14:38.776Z,100399.75
2019-05-26T10:17:10.253Z,100386.97
2019-05-26T10:19:41.716Z,100388.69
2019-05-26T10:22:13.500Z,100393.58
2019-05-26T10:24:45.637Z,100390.58
2019-05-26T10:27:17.153Z,100387.80
2019-05-26T10:29:48.405Z,100387.23
2019-05-26T10:32:19.837Z,100382.16
2019-05-26T10:34:51.377Z,100384.09
2019-05-26T10:37:22.790Z,100375.47
2019-05-26T10:39:55.607Z,100369.48
2019-05-26T10:42:27.010Z,100369.24
2019-05-26T10:44:58.931Z,100364.45
2019-05-26T10:47:32.305Z,100362.19
2019-05-26T10:50:10.670Z,100359.75
2019-05-26T10:52:42.023Z,100358.02
2019-05-26T10:55:13.624Z,100359.02
2019-05-26T10:57:46.024Z,100353.69
2019-05-26T11:00:18.389Z,100353.28
2019-05-26T11:03:17.676Z,100345.87
2019-05-26T11:05:49.088Z,100346.81
2019-05-26T11:08:20.640Z,100343.10
2019-05-26T11:10:51.979Z,100345.19
2019-05-26T11:13:25.224Z,100342.55
2019-05-26T11:15:56.794Z,100343.44
2019-05-26T11:18:28.150Z,100331.91
2019-05-26T11:20:59.402Z,100332.81
2019-05-26T11:23:31.156Z,100329.02
2019-05-26T11:26:03.752Z,100332.91
2019-05-26T11:28:35.153Z,100320.08
2019-05-26T11:31:06.663Z,100324.48
2019-05-26T11:33:38.016Z,100312.16
2019-05-26T11:36:09.318Z,100308.85
2019-05-26T11:38:40.676Z,100302.16
2019-05-26T11:41:12.147Z,100307.79
2019-05-26T11:43:43.686Z,100295.88
2019-05-26T11:46:17.319Z,100301.91
2019-05-26T11:48:49.052Z,100303.39
2019-05-26T11:51:20.412Z,100288.66
2019-05-26T11:53:51.765Z,100294.28
2019-05-26T11:56:23.272Z,100282.33
2019-05-26T11:58:54.583Z,100297.05
2019-05-26T12:01:26.904Z,100290.48
2019-05-26T12:03:58.414Z,100286.15
2019-05-26T12:06:29.816Z,100281.33
2019-05-26T12:09:01.097Z,100278.77
2019-05-26T12:11:33.898Z,100281.24
2019-05-26T12:14:05.513Z,100280.33
2019-05-26T12:16:37.183Z,100273.89
2019-05-26T12:19:08.686Z,100268.48
2019-05-26T12:21:40.280Z,100264.75
2019-05-26T12:24:11.831Z,100258.03
2019-05-26T12:26:43.191Z,100252.31
2019-05-26T12:29:14.510Z,100260.00
2019-05-26T12:31:45.846Z,100249.35
2019-05-26T12:34:17.205Z,100243.33
2019-05-26T12:36:48.579Z,100242.76
2019-05-26T12:39:19.971Z,100240.80
2019-05-26T12:41:51.623Z,100240.88
2019-05-26T12:44:23.064Z,100230.04
2019-05-26T12:46:54.820Z,100233.15
2019-05-26T12:49:27.971Z,100226.54
2019-05-26T12:51:59.507Z,100233.82
2019-05-26T12:54:31.076Z,100225.98
2019-05-26T12:57:02.686Z,100222.20
2019-05-26T12:59:34.297Z,100221.22
2019-05-26T13:02:06.377Z,100227.27
2019-05-26T13:04:38.178Z,100221.24
2019-05-26T13:07:09.619Z,100215.59
2019-05-26T13:09:41.116Z,100219.97
2019-05-26T13:12:12.380Z,100219.49
2019-05-26T13:14:43.725Z,100222.59
2019-05-26T13:17:15.243Z,100204.81
2019-05-26T13:19:52.667Z,100205.20
2019-05-26T13:22:25.034Z,100202.07
2019-05-26T13:24:56.972Z,100207.03
2019-05-26T13:27:28.404Z,100208.27
2019-05-26T13:29:59.778Z,100208.45
2019-05-26T13:32:31.037Z,100207.89
2019-05-26T13:35:25.472Z,100208.78
2019-05-26T13:37:58.191Z,100204.48
2019-05-26T13:40:29.795Z,100203.09
2019-05-26T13:43:02.125Z,100194.54
2019-05-26T13:45:34.200Z,100196.92
2019-05-26T13:48:07.091Z,100194.67
2019-05-26T13:50:38.464Z,100189.87
2019-05-26T13:53:09.801Z,100195.75
2019-05-26T13:55:41.277Z,100201.11
2019-05-26T13:58:12.606Z,100198.97
2019-05-26T14:00:44.080Z,100193.19
2019-05-26T14:03:15.565Z,100182.61
2019-05-26T14:05:47.035Z,100186.99
2019-05-26T14:08:18.473Z,100190.05
2019-05-26T14:10:49.826Z,100183.97
2019-05-26T14:13:21.271Z,100181.61
2019-05-26T14:15:56.775Z,100184.73
2019-05-26T14:18:37.193Z,100187.65
2019-05-26T14:21:08.563Z,100180.28
2019-05-26T14:23:40.028Z,100177.53
2019-05-26T14:26:13.451Z,100180.03
2019-05-26T14:28:49.685Z,100172.59
2019-05-26T14:31:21.064Z,100171.44
2019-05-26T14:33:53.644Z,100173.54
2019-05-26T14:36:25.073Z,100174.80
2019-05-26T14:39:02.727Z,100169.67
2019-05-26T14:41:34.215Z,100165.91
2019-05-26T14:44:05.911Z,100166.92
2019-05-26T14:46:37.870Z,100157.22
2019-05-26T14:49:10.349Z,100174.36
2019-05-26T14:51:41.785Z,100160.19
2019-05-26T14:54:13.195Z,100158.36
2019-05-26T14:56:44.575Z,100153.77
2019-05-26T14:59:16.131Z,100149.58
2019-05-26T15:02:05.740Z,100153.64
2019-05-26T15:04:37.134Z,100154.34
2019-05-26T15:07:08.647Z,100158.47
2019-05-26T15:09:40.127Z,100157.68
2019-05-26T15:12:11.516Z,100153.53
2019-05-26T15:14:43.422Z,100148.38
2019-05-26T15:17:15.025Z,100133.50
2019-05-26T15:19:46.405Z,100139.88
2019-05-26T15:22:17.670Z,100130.15
2019-05-26T15:24:49.033Z,100137.27
2019-05-26T15:27:20.427Z,100145.97
2019-05-26T15:29:51.754Z,100147.02
2019-05-26T15:32:23.056Z,100139.31
2019-05-26T15:34:54.416Z,100133.03
2019-05-26T15:37:25.673Z,100132.41
2019-05-26T15:39:56.999Z,100129.53
2019-05-26T15:42:28.601Z,100137.25
2019-05-26T15:45:00.158Z,100132.83
2019-05-26T15:47:31.665Z,100125.86
2019-05-26T15:50:03.562Z,100127.59
2019-05-26T15:52:35.004Z,100122.59
2019-05-26T15:55:07.031Z,100117.97
2019-05-26T15:57:38.491Z,100129.88
2019-05-26T16:00:10.487Z,100125.40
2019-05-26T16:02:41.997Z,100119.44
2019-05-26T16:05:13.449Z,100115.83
2019-05-26T16:07:44.935Z,100114.59
2019-05-26T16:10:17.054Z,100117.84
2019-05-26T16:12:48.585Z,100107.48
2019-05-26T16:15:19.948Z,100106.16
2019-05-26T16:17:51.428Z,100106.88
2019-05-26T16:20:22.930Z,100099.90
2019-05-26T16:22:54.447Z,100099.55
2019-05-26T16:25:25.899Z,100102.47
2019-05-26T16:27:57.261Z,100099.26
2019-05-26T16:30:28.728Z,100097.75
2019-05-26T16:33:00.072Z,100094.08
2019-05-26T16:35:31.443Z,100100.23
2019-05-26T16:38:02.833Z,100103.73
2019-05-26T16:40:34.858Z,100102.67
2019-05-26T16:43:06.240Z,100098.25
2019-05-26T16:45:37.597Z,100096.22
2019-05-26T16:48:08.906Z,100090.38
2019-05-26T16:50:40.397Z,100088.98
2019-05-26T16:53:11.701Z,100092.91
2019-05-26T16:55:43.580Z,100088.87
2019-05-26T16:58:15.122Z,100086.52
2019-05-26T17:00:46.486Z,100087.01
2019-05-26T17:03:17.881Z,100084.50
2019-05-26T17:05:49.258Z,100081.44
2019-05-26T17:08:20.639Z,100082.41
2019-05-26T17:10:51.998Z,100086.85
2019-05-26T17:13:23.400Z,100085.59
2019-05-26T17:15:54.836Z,100072.14
2019-05-26T17:18:26.146Z,100074.68
2019-05-26T17:20:59.192Z,100072.09
2019-05-26T17:23:30.466Z,100075.98
2019-05-26T17:26:01.863Z,100075.98
2019-05-26T17:28:33.251Z,100072.72
2019-05-26T17:31:05.159Z,100076.13
2019-05-26T17:33:36.403Z,100072.33
2019-05-26T17:36:07.700Z,100068.98
2019-05-26T17:38:39.023Z,100071.86
2019-05-26T17:41:10.389Z,100065.55
2019-05-26T17:43:41.888Z,100069.61
2019-05-26T17:46:15.253Z,100067.95
2019-05-26T17:48:46.811Z,100069.83
2019-05-26T17:51:18.385Z,100066.12
2019-05-26T17:53:52.670Z,100062.39
2019-05-26T17:56:24.184Z,100066.61
2019-05-26T17:58:55.669Z,100069.78
2019-05-26T18:01:27.089Z,100062.22
2019-05-26T18:03:58.462Z,100072.65
2019-05-26T18:06:31.463Z,100069.05
2019-05-26T18:09:02.845Z,100068.47
2019-05-26T18:11:34.410Z,100061.03
2019-05-26T18:14:06.339Z,100059.42
2019-05-26T18:16:37.907Z,100060.03
2019-05-26T18:19:09.360Z,100051.64
2019-05-26T18:21:41.163Z,100052.62
2019-05-26T18:24:12.522Z,100051.78
2019-05-26T18:26:44.141Z,100049.20
2019-05-26T18:29:17.193Z,100048.30
2019-05-26T18:31:48.601Z,100053.34
2019-05-26T18:34:20.108Z,100051.96
2019-05-26T18:36:51.643Z,100055.05
2019-05-26T18:39:22.969Z,100045.55
2019-05-26T18:41:54.636Z,100052.88
2019-05-26T18:44:29.592Z,100051.63
2019-05-26T18:47:00.899Z,100046.96
2019-05-26T18:49:32.264Z,100052.51
2019-05-26T18:52:03.739Z,100051.11
2019-05-26T18:54:35.197Z,100050.25
2019-05-26T18:57:06.798Z,100047.77
2019-05-26T18:59:40.361Z,100046.09
2019-05-26T19:02:11.832Z,100047.26
2019-05-26T19:04:54.800Z,100036.55
2019-05-26T19:07:26.256Z,100040.11
2019-05-26T19:09:57.940Z,100040.64
2019-05-26T19:12:29.455Z,100041.20
2019-05-26T19:15:02.895Z,100044.34
2019-05-26T19:17:35.202Z,100037.59
2019-05-26T19:20:16.536Z,100042.73
2019-05-26T19:22:43.959Z,100050.13
2019-05-26T19:25:15.409Z,100053.80
2019-05-26T19:27:46.767Z,100049.13
2019-05-26T19:30:22.281Z,100042.95
2019-05-26T19:32:53.777Z,100045.72
2019-05-26T19:35:25.208Z,100045.98
2019-05-26T19:37:56.815Z,100046.73
2019-05-26T19:40:28.473Z,100049.40
2019-05-26T19:42:59.816Z,100050.68
2019-05-26T19:45:34.030Z,100049.01
2019-05-26T19:48:05.544Z,100051.06
2019-05-26T19:50:36.973Z,100054.41
2019-05-26T19:53:08.435Z,100047.64
2019-05-26T19:55:39.963Z,100047.92
2019-05-26T19:58:12.057Z,100050.56
2019-05-26T20:00:46.970Z,100051.67
2019-05-26T20:03:18.360Z,100058.18
2019-05-26T20:05:49.739Z,100047.95
2019-05-26T20:08:21.161Z,100052.71
2019-05-26T20:10:52.846Z,100056.98
2019-05-26T20:13:24.279Z,100053.41
2019-05-26T20:15:55.729Z,100053.93
2019-05-26T20:18:27.821Z,100053.66
2019-05-26T20:20:59.286Z,100049.20
2019-05-26T20:23:30.880Z,100046.95
2019-05-26T20:26:02.555Z,100048.55
2019-05-26T20:28:34.037Z,100048.19
2019-05-26T20:31:06.608Z,100051.53
2019-05-26T20:33:38.003Z,100044.22
2019-05-26T20:36:09.247Z,100047.80
2019-05-26T20:38:40.794Z,100046.78
2019-05-26T20:41:12.306Z,100042.78
2019-05-26T20:43:43.703Z,100040.58
2019-05-26T20:46:15.073Z,100038.48
2019-05-26T20:48:46.590Z,100037.94
2019-05-26T20:51:18.077Z,100038.09
2019-05-26T20:53:49.472Z,100043.70
2019-05-26T20:56:20.749Z,100042.40
2019-05-26T20:58:52.145Z,100050.00
2019-05-26T21:01:23.394Z,100038.03
2019-05-26T21:03:55.845Z,100035.05
2019-05-26T21:06:27.116Z,100037.17
2019-05-26T21:08:58.530Z,100038.58
2019-05-26T21:11:29.996Z,100039.48
2019-05-26T21:14:01.817Z,100037.20
2019-05-26T21:16:33.275Z,100037.63
2019-05-26T21:19:05.818Z,100033.30
2019-05-26T21:21:37.749Z,100038.17
2019-05-26T21:24:09.192Z,100032.56
2019-05-26T21:26:40.477Z,100035.05
2019-05-26T21:29:11.943Z,100034.29
2019-05-26T21:31:43.446Z,100029.22
2019-05-26T21:34:15.132Z,100031.20
2019-05-26T21:36:46.497Z,100025.67
2019-05-26T21:39:17.982Z,100033.81
2019-05-26T21:41:49.247Z,100030.66
2019-05-26T21:44:20.570Z,100024.05
2019-05-26T21:46:51.956Z,100017.41
2019-05-26T21:49:23.400Z,100024.12
2019-05-26T21:51:54.694Z,100020.50
2019-05-26T21:54:26.053Z,100019.14
2019-05-26T21:56:57.421Z,100018.83
2019-05-26T21:59:28.696Z,100014.69
2019-05-26T22:02:00.217Z,100013.63
2019-05-26T22:04:31.619Z,100013.91
2019-05-26T22:07:02.913Z,100013.14
2019-05-26T22:09:34.748Z,100009.14
2019-05-26T22:12:06.182Z,100012.80
2019-05-26T22:14:37.608Z,100006.16
2019-05-26T22:17:09.031Z,100006.42
2019-05-26T22:19:40.297Z,100009.33
2019-05-26T22:22:11.611Z,100014.08
2019-05-26T22:24:42.870Z,100006.30
2019-05-26T22:27:14.201Z,100009.70
2019-05-26T22:29:45.616Z,100005.95
2019-05-26T22:32:17.023Z,100001.66
2019-05-26T22:34:48.351Z,99999.71
2019-05-26T22:37:19.892Z,100000.45
2019-05-26T22:39:51.163Z,99993.36
2019-05-26T22:42:22.935Z,99993.16
2019-05-26T22:44:55.290Z,99994.48
2019-05-26T22:47:26.730Z,99999.55
2019-05-26T22:50:00.508Z,99993.13
2019-05-26T22:52:32.686Z,100000.20
2019-05-26T22:55:05.882Z,99995.92
2019-05-26T22:57:37.185Z,99991.09
2019-05-26T23:00:11.014Z,99997.94
2019-05-26T23:02:42.491Z,99993.23
2019-05-26T23:05:13.982Z,99987.86
2019-05-26T23:07:45.422Z,99981.45
2019-05-26T23:10:16.749Z,99981.94
2019-05-26T23:12:48.049Z,99973.91
2019-05-26T23:15:20.123Z,99981.16
2019-05-26T23:17:51.603Z,99976.07
2019-05-26T23:20:22.877Z,99967.84
2019-05-26T23:22:54.322Z,99967.80
2019-05-26T23:25:25.659Z,99963.42
2019-05-26T23:27:57.132Z,99974.77
2019-05-26T23:30:28.557Z,99975.86
2019-05-26T23:32:59.945Z,99975.73
2019-05-26T23:35:32.870Z,99970.84
2019-05-26T23:38:04.232Z,99963.91
2019-05-26T23:40:35.723Z,99963.84
2019-05-26T23:43:06.997Z,99964.87
2019-05-26T23:45:38.296Z,99960.33
2019-05-26T23:48:10.717Z,99959.31
2019-05-26T23:50:42.194Z,99963.69
2019-05-26T23:53:13.461Z,99957.15
2019-05-26T23:55:45.897Z,99959.02
2019-05-26T23:58:17.223Z,99954.63
